sensor_id;sensor_type;location;lat;lon;timestamp;P1;durP1;ratioP1;P2;durP2;ratioP2
68475;SDS011;55464;48.266;14.188;2023-06-10T00:02:20;9.13;;;6.65;;
68475;SDS011;55464;48.266;14.188;2023-06-10T00:04:45;9.93;;;6.63;;
68475;SDS011;55464;48.266;14.188;2023-06-10T00:07:11;8.93;;;7.25;;
68475;SDS011;55464;48.266;14.188;2023-06-10T00:09:39;8.35;;;6.97;;
68475;SDS011;55464;48.266;14.188;2023-06-10T00:12:05;11.07;;;7.78;;
68475;SDS011;55464;48.266;14.188;2023-06-10T00:14:32;8.50;;;7.18;;
68475;SDS011;55464;48.266;14.188;2023-06-10T00:17:01;10.95;;;7.20;;
68475;SDS011;55464;48.266;14.188;2023-06-10T00:19:27;11.05;;;7.07;;
68475;SDS011;55464;48.266;14.188;2023-06-10T00:21:55;7.95;;;6.38;;
68475;SDS011;55464;48.266;14.188;2023-06-10T00:24:21;10.95;;;7.03;;
68475;SDS011;55464;48.266;14.188;2023-06-10T00:26:47;9.70;;;7.40;;
68475;SDS011;55464;48.266;14.188;2023-06-10T00:29:12;8.25;;;6.45;;
68475;SDS011;55464;48.266;14.188;2023-06-10T00:31:39;12.48;;;6.50;;
68475;SDS011;55464;48.266;14.188;2023-06-10T00:34:05;10.02;;;6.88;;
68475;SDS011;55464;48.266;14.188;2023-06-10T00:36:30;9.43;;;7.05;;
68475;SDS011;55464;48.266;14.188;2023-06-10T00:38:56;9.75;;;6.80;;
68475;SDS011;55464;48.266;14.188;2023-06-10T00:41:22;8.18;;;6.95;;
68475;SDS011;55464;48.266;14.188;2023-06-10T00:43:48;8.70;;;6.63;;
68475;SDS011;55464;48.266;14.188;2023-06-10T00:46:13;7.93;;;6.70;;
68475;SDS011;55464;48.266;14.188;2023-06-10T00:48:40;11.25;;;7.07;;
68475;SDS011;55464;48.266;14.188;2023-06-10T00:51:07;8.30;;;6.85;;
68475;SDS011;55464;48.266;14.188;2023-06-10T00:53:34;11.88;;;7.30;;
68475;SDS011;55464;48.266;14.188;2023-06-10T00:56:01;8.38;;;6.70;;
68475;SDS011;55464;48.266;14.188;2023-06-10T00:58:27;9.60;;;6.80;;
68475;SDS011;55464;48.266;14.188;2023-06-10T01:00:52;10.38;;;6.90;;
68475;SDS011;55464;48.266;14.188;2023-06-10T01:03:18;9.93;;;7.55;;
68475;SDS011;55464;48.266;14.188;2023-06-10T01:05:44;10.48;;;7.05;;
68475;SDS011;55464;48.266;14.188;2023-06-10T01:08:38;11.13;;;7.95;;
68475;SDS011;55464;48.266;14.188;2023-06-10T01:11:15;10.18;;;7.45;;
68475;SDS011;55464;48.266;14.188;2023-06-10T01:13:45;12.75;;;8.45;;
68475;SDS011;55464;48.266;14.188;2023-06-10T01:16:16;14.15;;;9.85;;
68475;SDS011;55464;48.266;14.188;2023-06-10T01:18:43;15.88;;;10.48;;
68475;SDS011;55464;48.266;14.188;2023-06-10T01:21:13;15.98;;;10.88;;
68475;SDS011;55464;48.266;14.188;2023-06-10T01:23:42;16.88;;;10.65;;
68475;SDS011;55464;48.266;14.188;2023-06-10T01:26:09;15.85;;;12.45;;
68475;SDS011;55464;48.266;14.188;2023-06-10T01:28:38;17.42;;;11.00;;
68475;SDS011;55464;48.266;14.188;2023-06-10T01:31:17;17.00;;;10.43;;
68475;SDS011;55464;48.266;14.188;2023-06-10T01:33:52;13.73;;;10.15;;
68475;SDS011;55464;48.266;14.188;2023-06-10T01:36:18;13.90;;;8.60;;
68475;SDS011;55464;48.266;14.188;2023-06-10T01:38:47;11.50;;;8.13;;
68475;SDS011;55464;48.266;14.188;2023-06-10T01:41:16;9.95;;;8.25;;
68475;SDS011;55464;48.266;14.188;2023-06-10T01:43:42;15.25;;;8.45;;
68475;SDS011;55464;48.266;14.188;2023-06-10T01:46:08;8.88;;;6.85;;
68475;SDS011;55464;48.266;14.188;2023-06-10T01:48:34;10.80;;;7.85;;
68475;SDS011;55464;48.266;14.188;2023-06-10T01:51:00;7.82;;;6.72;;
68475;SDS011;55464;48.266;14.188;2023-06-10T01:53:25;7.38;;;6.28;;
68475;SDS011;55464;48.266;14.188;2023-06-10T01:55:50;8.60;;;6.85;;
68475;SDS011;55464;48.266;14.188;2023-06-10T01:58:16;11.25;;;8.38;;
68475;SDS011;55464;48.266;14.188;2023-06-10T02:00:42;15.20;;;9.95;;
68475;SDS011;55464;48.266;14.188;2023-06-10T02:03:07;13.10;;;9.60;;
68475;SDS011;55464;48.266;14.188;2023-06-10T02:05:33;14.30;;;9.82;;
68475;SDS011;55464;48.266;14.188;2023-06-10T02:07:58;12.75;;;9.80;;
68475;SDS011;55464;48.266;14.188;2023-06-10T02:10:23;13.85;;;10.70;;
68475;SDS011;55464;48.266;14.188;2023-06-10T02:12:49;13.57;;;9.73;;
68475;SDS011;55464;48.266;14.188;2023-06-10T02:15:15;15.05;;;9.32;;
68475;SDS011;55464;48.266;14.188;2023-06-10T02:17:40;10.43;;;8.13;;
68475;SDS011;55464;48.266;14.188;2023-06-10T02:20:06;13.98;;;8.32;;
68475;SDS011;55464;48.266;14.188;2023-06-10T02:22:33;11.02;;;8.63;;
68475;SDS011;55464;48.266;14.188;2023-06-10T02:24:58;10.30;;;8.52;;
68475;SDS011;55464;48.266;14.188;2023-06-10T02:27:24;11.98;;;8.85;;
68475;SDS011;55464;48.266;14.188;2023-06-10T02:29:50;10.63;;;8.82;;
68475;SDS011;55464;48.266;14.188;2023-06-10T02:32:15;12.63;;;9.25;;
68475;SDS011;55464;48.266;14.188;2023-06-10T02:34:41;12.23;;;8.52;;
68475;SDS011;55464;48.266;14.188;2023-06-10T02:37:09;12.27;;;8.38;;
68475;SDS011;55464;48.266;14.188;2023-06-10T02:39:35;12.38;;;8.73;;
68475;SDS011;55464;48.266;14.188;2023-06-10T02:42:00;12.15;;;8.90;;
68475;SDS011;55464;48.266;14.188;2023-06-10T02:44:26;12.48;;;9.32;;
68475;SDS011;55464;48.266;14.188;2023-06-10T02:46:51;11.82;;;9.30;;
68475;SDS011;55464;48.266;14.188;2023-06-10T02:49:16;12.35;;;9.65;;
68475;SDS011;55464;48.266;14.188;2023-06-10T02:51:42;16.17;;;9.82;;
68475;SDS011;55464;48.266;14.188;2023-06-10T02:54:07;12.82;;;9.32;;
68475;SDS011;55464;48.266;14.188;2023-06-10T02:56:33;13.27;;;10.40;;
68475;SDS011;55464;48.266;14.188;2023-06-10T02:58:59;13.25;;;10.68;;
68475;SDS011;55464;48.266;14.188;2023-06-10T03:01:25;13.40;;;10.50;;
68475;SDS011;55464;48.266;14.188;2023-06-10T03:03:50;15.65;;;10.18;;
68475;SDS011;55464;48.266;14.188;2023-06-10T03:06:16;14.65;;;10.00;;
68475;SDS011;55464;48.266;14.188;2023-06-10T03:08:41;14.52;;;10.02;;
68475;SDS011;55464;48.266;14.188;2023-06-10T03:11:07;13.82;;;10.13;;
68475;SDS011;55464;48.266;14.188;2023-06-10T03:13:33;17.00;;;10.20;;
68475;SDS011;55464;48.266;14.188;2023-06-10T03:15:59;13.40;;;9.55;;
68475;SDS011;55464;48.266;14.188;2023-06-10T03:18:27;11.15;;;9.35;;
68475;SDS011;55464;48.266;14.188;2023-06-10T03:20:53;14.13;;;10.32;;
68475;SDS011;55464;48.266;14.188;2023-06-10T03:23:20;13.20;;;9.73;;
68475;SDS011;55464;48.266;14.188;2023-06-10T03:25:45;12.82;;;9.02;;
68475;SDS011;55464;48.266;14.188;2023-06-10T03:28:11;13.55;;;9.57;;
68475;SDS011;55464;48.266;14.188;2023-06-10T03:30:36;12.30;;;9.05;;
68475;SDS011;55464;48.266;14.188;2023-06-10T03:33:02;11.75;;;9.00;;
68475;SDS011;55464;48.266;14.188;2023-06-10T03:35:27;12.18;;;9.50;;
68475;SDS011;55464;48.266;14.188;2023-06-10T03:37:52;12.40;;;8.30;;
68475;SDS011;55464;48.266;14.188;2023-06-10T03:40:18;12.02;;;9.57;;
68475;SDS011;55464;48.266;14.188;2023-06-10T03:42:43;13.40;;;9.73;;
68475;SDS011;55464;48.266;14.188;2023-06-10T03:45:09;12.38;;;9.02;;
68475;SDS011;55464;48.266;14.188;2023-06-10T03:47:35;13.18;;;9.57;;
68475;SDS011;55464;48.266;14.188;2023-06-10T03:50:02;12.63;;;9.27;;
68475;SDS011;55464;48.266;14.188;2023-06-10T03:52:28;14.00;;;10.10;;
68475;SDS011;55464;48.266;14.188;2023-06-10T03:54:54;14.65;;;10.57;;
68475;SDS011;55464;48.266;14.188;2023-06-10T03:57:19;12.20;;;9.18;;
68475;SDS011;55464;48.266;14.188;2023-06-10T03:59:45;13.32;;;9.43;;
68475;SDS011;55464;48.266;14.188;2023-06-10T04:02:10;12.88;;;9.15;;
68475;SDS011;55464;48.266;14.188;2023-06-10T04:04:36;11.80;;;9.05;;
68475;SDS011;55464;48.266;14.188;2023-06-10T04:07:02;13.98;;;10.05;;
68475;SDS011;55464;48.266;14.188;2023-06-10T04:09:28;12.18;;;9.45;;
68475;SDS011;55464;48.266;14.188;2023-06-10T04:11:54;12.27;;;9.52;;
68475;SDS011;55464;48.266;14.188;2023-06-10T04:14:19;13.93;;;9.80;;
68475;SDS011;55464;48.266;14.188;2023-06-10T04:16:44;15.43;;;9.65;;
68475;SDS011;55464;48.266;14.188;2023-06-10T04:19:10;12.43;;;10.32;;
68475;SDS011;55464;48.266;14.188;2023-06-10T04:21:35;13.73;;;10.77;;
68475;SDS011;55464;48.266;14.188;2023-06-10T04:24:01;11.77;;;9.90;;
68475;SDS011;55464;48.266;14.188;2023-06-10T04:26:27;14.60;;;10.25;;
68475;SDS011;55464;48.266;14.188;2023-06-10T04:28:52;17.40;;;10.15;;
68475;SDS011;55464;48.266;14.188;2023-06-10T04:31:18;16.80;;;11.02;;
68475;SDS011;55464;48.266;14.188;2023-06-10T04:33:43;14.80;;;10.55;;
68475;SDS011;55464;48.266;14.188;2023-06-10T04:36:08;15.45;;;10.18;;
68475;SDS011;55464;48.266;14.188;2023-06-10T04:38:34;16.75;;;10.32;;
68475;SDS011;55464;48.266;14.188;2023-06-10T04:40:59;13.90;;;10.55;;
68475;SDS011;55464;48.266;14.188;2023-06-10T04:43:25;15.18;;;9.93;;
68475;SDS011;55464;48.266;14.188;2023-06-10T04:45:50;12.50;;;8.95;;
68475;SDS011;55464;48.266;14.188;2023-06-10T04:48:15;15.70;;;9.45;;
68475;SDS011;55464;48.266;14.188;2023-06-10T04:50:41;12.13;;;10.00;;
68475;SDS011;55464;48.266;14.188;2023-06-10T04:53:06;15.38;;;9.52;;
68475;SDS011;55464;48.266;14.188;2023-06-10T04:55:32;12.50;;;9.55;;
68475;SDS011;55464;48.266;14.188;2023-06-10T04:57:59;14.25;;;10.35;;
68475;SDS011;55464;48.266;14.188;2023-06-10T05:00:24;15.35;;;9.82;;
68475;SDS011;55464;48.266;14.188;2023-06-10T05:02:50;12.50;;;9.85;;
68475;SDS011;55464;48.266;14.188;2023-06-10T05:05:17;11.35;;;9.20;;
68475;SDS011;55464;48.266;14.188;2023-06-10T05:07:43;14.30;;;10.73;;
68475;SDS011;55464;48.266;14.188;2023-06-10T05:10:08;13.68;;;10.23;;
68475;SDS011;55464;48.266;14.188;2023-06-10T05:12:34;16.17;;;10.32;;
68475;SDS011;55464;48.266;14.188;2023-06-10T05:15:00;16.90;;;10.80;;
68475;SDS011;55464;48.266;14.188;2023-06-10T05:17:25;13.00;;;10.25;;
68475;SDS011;55464;48.266;14.188;2023-06-10T05:19:51;15.30;;;10.73;;
68475;SDS011;55464;48.266;14.188;2023-06-10T05:22:16;14.27;;;10.55;;
68475;SDS011;55464;48.266;14.188;2023-06-10T05:24:43;14.38;;;10.88;;
68475;SDS011;55464;48.266;14.188;2023-06-10T05:27:09;14.95;;;11.18;;
68475;SDS011;55464;48.266;14.188;2023-06-10T05:29:35;14.18;;;10.77;;
68475;SDS011;55464;48.266;14.188;2023-06-10T05:32:00;14.23;;;10.27;;
68475;SDS011;55464;48.266;14.188;2023-06-10T05:34:28;19.88;;;11.68;;
68475;SDS011;55464;48.266;14.188;2023-06-10T05:36:54;17.17;;;10.65;;
68475;SDS011;55464;48.266;14.188;2023-06-10T05:39:20;16.27;;;11.20;;
68475;SDS011;55464;48.266;14.188;2023-06-10T05:41:45;14.05;;;10.13;;
68475;SDS011;55464;48.266;14.188;2023-06-10T05:44:11;18.75;;;11.52;;
68475;SDS011;55464;48.266;14.188;2023-06-10T05:46:36;21.30;;;12.75;;
68475;SDS011;55464;48.266;14.188;2023-06-10T05:49:02;21.25;;;11.45;;
68475;SDS011;55464;48.266;14.188;2023-06-10T05:51:27;17.95;;;11.18;;
68475;SDS011;55464;48.266;14.188;2023-06-10T05:53:53;21.77;;;12.88;;
68475;SDS011;55464;48.266;14.188;2023-06-10T05:56:19;19.33;;;13.60;;
68475;SDS011;55464;48.266;14.188;2023-06-10T05:58:46;19.50;;;12.88;;
68475;SDS011;55464;48.266;14.188;2023-06-10T06:01:11;20.48;;;12.65;;
68475;SDS011;55464;48.266;14.188;2023-06-10T06:03:37;18.10;;;12.10;;
68475;SDS011;55464;48.266;14.188;2023-06-10T06:06:02;15.23;;;11.10;;
68475;SDS011;55464;48.266;14.188;2023-06-10T06:08:29;14.05;;;10.90;;
68475;SDS011;55464;48.266;14.188;2023-06-10T06:10:54;16.67;;;11.07;;
68475;SDS011;55464;48.266;14.188;2023-06-10T06:13:20;14.73;;;11.20;;
68475;SDS011;55464;48.266;14.188;2023-06-10T06:15:45;12.82;;;10.20;;
68475;SDS011;55464;48.266;14.188;2023-06-10T06:18:11;13.93;;;10.63;;
68475;SDS011;55464;48.266;14.188;2023-06-10T06:20:36;14.57;;;10.80;;
68475;SDS011;55464;48.266;14.188;2023-06-10T06:23:02;13.95;;;9.88;;
68475;SDS011;55464;48.266;14.188;2023-06-10T06:25:27;14.55;;;10.65;;
68475;SDS011;55464;48.266;14.188;2023-06-10T06:27:52;13.00;;;10.32;;
68475;SDS011;55464;48.266;14.188;2023-06-10T06:30:18;14.68;;;10.30;;
68475;SDS011;55464;48.266;14.188;2023-06-10T06:32:43;16.10;;;10.38;;
68475;SDS011;55464;48.266;14.188;2023-06-10T06:35:09;19.52;;;11.75;;
68475;SDS011;55464;48.266;14.188;2023-06-10T06:37:35;18.77;;;10.80;;
68475;SDS011;55464;48.266;14.188;2023-06-10T06:40:01;14.05;;;10.23;;
68475;SDS011;55464;48.266;14.188;2023-06-10T06:42:26;12.40;;;9.60;;
68475;SDS011;55464;48.266;14.188;2023-06-10T06:44:52;17.38;;;10.60;;
68475;SDS011;55464;48.266;14.188;2023-06-10T06:47:17;14.10;;;10.15;;
68475;SDS011;55464;48.266;14.188;2023-06-10T06:49:45;12.00;;;10.23;;
68475;SDS011;55464;48.266;14.188;2023-06-10T06:52:14;13.98;;;10.43;;
68475;SDS011;55464;48.266;14.188;2023-06-10T06:54:40;13.88;;;10.75;;
68475;SDS011;55464;48.266;14.188;2023-06-10T06:57:05;13.40;;;9.60;;
68475;SDS011;55464;48.266;14.188;2023-06-10T06:59:32;23.75;;;10.30;;
68475;SDS011;55464;48.266;14.188;2023-06-10T07:01:57;15.73;;;10.05;;
68475;SDS011;55464;48.266;14.188;2023-06-10T07:04:23;12.25;;;8.80;;
68475;SDS011;55464;48.266;14.188;2023-06-10T07:06:48;12.65;;;9.98;;
68475;SDS011;55464;48.266;14.188;2023-06-10T07:09:14;13.38;;;9.82;;
68475;SDS011;55464;48.266;14.188;2023-06-10T07:11:40;13.00;;;8.60;;
68475;SDS011;55464;48.266;14.188;2023-06-10T07:14:05;12.35;;;8.68;;
68475;SDS011;55464;48.266;14.188;2023-06-10T07:16:31;16.33;;;10.20;;
68475;SDS011;55464;48.266;14.188;2023-06-10T07:18:57;12.98;;;8.95;;
68475;SDS011;55464;48.266;14.188;2023-06-10T07:21:22;13.07;;;9.77;;
68475;SDS011;55464;48.266;14.188;2023-06-10T07:23:48;12.68;;;9.15;;
68475;SDS011;55464;48.266;14.188;2023-06-10T07:26:14;12.13;;;9.40;;
68475;SDS011;55464;48.266;14.188;2023-06-10T07:28:40;13.40;;;9.75;;
68475;SDS011;55464;48.266;14.188;2023-06-10T07:31:06;12.65;;;9.60;;
68475;SDS011;55464;48.266;14.188;2023-06-10T07:33:32;15.55;;;10.05;;
68475;SDS011;55464;48.266;14.188;2023-06-10T07:35:57;15.85;;;11.32;;
68475;SDS011;55464;48.266;14.188;2023-06-10T07:38:24;15.85;;;10.98;;
68475;SDS011;55464;48.266;14.188;2023-06-10T07:40:49;17.67;;;10.75;;
68475;SDS011;55464;48.266;14.188;2023-06-10T07:43:15;17.90;;;10.68;;
68475;SDS011;55464;48.266;14.188;2023-06-10T07:45:40;18.02;;;10.85;;
68475;SDS011;55464;48.266;14.188;2023-06-10T07:48:06;10.65;;;7.78;;
68475;SDS011;55464;48.266;14.188;2023-06-10T07:50:32;11.30;;;8.18;;
68475;SDS011;55464;48.266;14.188;2023-06-10T07:52:57;17.00;;;11.45;;
68475;SDS011;55464;48.266;14.188;2023-06-10T07:55:22;14.30;;;10.65;;
68475;SDS011;55464;48.266;14.188;2023-06-10T07:57:50;14.13;;;10.25;;
68475;SDS011;55464;48.266;14.188;2023-06-10T08:00:16;15.55;;;11.38;;
68475;SDS011;55464;48.266;14.188;2023-06-10T08:02:42;16.80;;;11.05;;
68475;SDS011;55464;48.266;14.188;2023-06-10T08:05:07;14.30;;;9.88;;
68475;SDS011;55464;48.266;14.188;2023-06-10T08:07:33;15.07;;;10.07;;
68475;SDS011;55464;48.266;14.188;2023-06-10T08:09:58;13.18;;;8.90;;
68475;SDS011;55464;48.266;14.188;2023-06-10T08:12:24;10.63;;;8.57;;
68475;SDS011;55464;48.266;14.188;2023-06-10T08:14:49;10.93;;;7.88;;
68475;SDS011;55464;48.266;14.188;2023-06-10T08:17:15;10.80;;;8.48;;
68475;SDS011;55464;48.266;14.188;2023-06-10T08:19:40;12.07;;;8.00;;
68475;SDS011;55464;48.266;14.188;2023-06-10T08:22:06;9.38;;;7.32;;
68475;SDS011;55464;48.266;14.188;2023-06-10T08:24:31;10.80;;;7.93;;
68475;SDS011;55464;48.266;14.188;2023-06-10T08:26:57;10.98;;;8.00;;
68475;SDS011;55464;48.266;14.188;2023-06-10T08:29:23;13.10;;;8.15;;
68475;SDS011;55464;48.266;14.188;2023-06-10T08:31:48;11.23;;;7.70;;
68475;SDS011;55464;48.266;14.188;2023-06-10T08:34:14;10.02;;;7.88;;
68475;SDS011;55464;48.266;14.188;2023-06-10T08:36:39;9.80;;;7.43;;
68475;SDS011;55464;48.266;14.188;2023-06-10T08:39:05;8.02;;;7.10;;
68475;SDS011;55464;48.266;14.188;2023-06-10T08:41:30;13.50;;;7.65;;
68475;SDS011;55464;48.266;14.188;2023-06-10T08:44:19;9.10;;;7.28;;
68475;SDS011;55464;48.266;14.188;2023-06-10T08:46:52;8.27;;;6.43;;
68475;SDS011;55464;48.266;14.188;2023-06-10T08:49:20;9.40;;;7.00;;
68475;SDS011;55464;48.266;14.188;2023-06-10T08:51:51;9.65;;;7.90;;
68475;SDS011;55464;48.266;14.188;2023-06-10T08:54:24;9.48;;;7.28;;
68475;SDS011;55464;48.266;14.188;2023-06-10T08:56:52;10.63;;;7.72;;
68475;SDS011;55464;48.266;14.188;2023-06-10T08:59:20;9.45;;;7.80;;
68475;SDS011;55464;48.266;14.188;2023-06-10T09:01:46;8.45;;;7.38;;
68475;SDS011;55464;48.266;14.188;2023-06-10T09:04:13;11.30;;;8.13;;
68475;SDS011;55464;48.266;14.188;2023-06-10T09:06:39;8.30;;;7.40;;
68475;SDS011;55464;48.266;14.188;2023-06-10T09:09:06;11.43;;;8.40;;
68475;SDS011;55464;48.266;14.188;2023-06-10T09:11:32;10.23;;;7.75;;
68475;SDS011;55464;48.266;14.188;2023-06-10T09:13:58;9.02;;;7.68;;
68475;SDS011;55464;48.266;14.188;2023-06-10T09:16:27;12.20;;;8.20;;
68475;SDS011;55464;48.266;14.188;2023-06-10T09:18:53;9.18;;;7.40;;
68475;SDS011;55464;48.266;14.188;2023-06-10T09:21:23;11.48;;;8.30;;
68475;SDS011;55464;48.266;14.188;2023-06-10T09:23:50;10.57;;;8.25;;
68475;SDS011;55464;48.266;14.188;2023-06-10T09:26:16;10.23;;;8.00;;
68475;SDS011;55464;48.266;14.188;2023-06-10T09:28:48;10.20;;;8.02;;
68475;SDS011;55464;48.266;14.188;2023-06-10T09:31:15;9.23;;;7.82;;
68475;SDS011;55464;48.266;14.188;2023-06-10T09:33:43;10.68;;;8.73;;
68475;SDS011;55464;48.266;14.188;2023-06-10T09:36:10;10.07;;;7.38;;
68475;SDS011;55464;48.266;14.188;2023-06-10T09:38:36;10.38;;;8.13;;
68475;SDS011;55464;48.266;14.188;2023-06-10T09:41:02;9.27;;;7.88;;
68475;SDS011;55464;48.266;14.188;2023-06-10T09:43:38;9.68;;;8.68;;
68475;SDS011;55464;48.266;14.188;2023-06-10T09:46:05;10.15;;;7.03;;
68475;SDS011;55464;48.266;14.188;2023-06-10T09:48:34;8.68;;;7.70;;
68475;SDS011;55464;48.266;14.188;2023-06-10T09:51:00;10.10;;;6.90;;
68475;SDS011;55464;48.266;14.188;2023-06-10T09:53:25;8.30;;;6.88;;
68475;SDS011;55464;48.266;14.188;2023-06-10T09:55:51;7.25;;;6.53;;
68475;SDS011;55464;48.266;14.188;2023-06-10T09:58:17;7.50;;;6.75;;
68475;SDS011;55464;48.266;14.188;2023-06-10T10:00:42;8.50;;;6.95;;
68475;SDS011;55464;48.266;14.188;2023-06-10T10:03:08;7.50;;;6.70;;
68475;SDS011;55464;48.266;14.188;2023-06-10T10:05:33;10.45;;;7.72;;
68475;SDS011;55464;48.266;14.188;2023-06-10T10:07:58;11.07;;;9.00;;
68475;SDS011;55464;48.266;14.188;2023-06-10T10:10:24;9.18;;;8.07;;
68475;SDS011;55464;48.266;14.188;2023-06-10T10:12:55;10.00;;;7.65;;
68475;SDS011;55464;48.266;14.188;2023-06-10T10:15:21;10.18;;;8.27;;
68475;SDS011;55464;48.266;14.188;2023-06-10T10:17:49;13.02;;;9.18;;
68475;SDS011;55464;48.266;14.188;2023-06-10T10:20:22;9.65;;;8.27;;
68475;SDS011;55464;48.266;14.188;2023-06-10T10:22:56;9.38;;;7.63;;
68475;SDS011;55464;48.266;14.188;2023-06-10T10:25:27;8.13;;;7.32;;
68475;SDS011;55464;48.266;14.188;2023-06-10T10:27:57;8.75;;;7.43;;
68475;SDS011;55464;48.266;14.188;2023-06-10T10:30:31;8.95;;;7.70;;
68475;SDS011;55464;48.266;14.188;2023-06-10T10:33:05;9.07;;;7.70;;
68475;SDS011;55464;48.266;14.188;2023-06-10T10:35:34;8.60;;;7.32;;
68475;SDS011;55464;48.266;14.188;2023-06-10T10:38:01;10.68;;;7.60;;
68475;SDS011;55464;48.266;14.188;2023-06-10T10:40:27;8.50;;;6.60;;
68475;SDS011;55464;48.266;14.188;2023-06-10T10:42:58;8.80;;;6.78;;
68475;SDS011;55464;48.266;14.188;2023-06-10T10:45:24;8.30;;;6.72;;
68475;SDS011;55464;48.266;14.188;2023-06-10T10:47:53;11.03;;;6.17;;
68475;SDS011;55464;48.266;14.188;2023-06-10T10:50:22;8.63;;;6.27;;
68475;SDS011;55464;48.266;14.188;2023-06-10T10:52:55;9.55;;;7.45;;
68475;SDS011;55464;48.266;14.188;2023-06-10T10:55:24;9.88;;;6.82;;
68475;SDS011;55464;48.266;14.188;2023-06-10T10:58:03;9.35;;;7.82;;
68475;SDS011;55464;48.266;14.188;2023-06-10T11:00:31;10.65;;;8.52;;
68475;SDS011;55464;48.266;14.188;2023-06-10T11:02:58;8.40;;;7.43;;
68475;SDS011;55464;48.266;14.188;2023-06-10T11:05:46;9.98;;;7.32;;
68475;SDS011;55464;48.266;14.188;2023-06-10T11:08:15;7.53;;;6.70;;
68475;SDS011;55464;48.266;14.188;2023-06-10T11:11:00;6.68;;;5.97;;
68475;SDS011;55464;48.266;14.188;2023-06-10T11:13:26;6.90;;;4.50;;
68475;SDS011;55464;48.266;14.188;2023-06-10T11:15:56;6.82;;;4.43;;
68475;SDS011;55464;48.266;14.188;2023-06-10T11:18:26;6.03;;;4.68;;
68475;SDS011;55464;48.266;14.188;2023-06-10T11:21:03;5.20;;;4.25;;
68475;SDS011;55464;48.266;14.188;2023-06-10T11:29:08;9.07;;;4.50;;
68475;SDS011;55464;48.266;14.188;2023-06-10T11:34:15;8.10;;;4.22;;
68475;SDS011;55464;48.266;14.188;2023-06-10T11:36:48;5.63;;;3.55;;
68475;SDS011;55464;48.266;14.188;2023-06-10T11:39:14;6.53;;;4.15;;
68475;SDS011;55464;48.266;14.188;2023-06-10T11:41:39;4.72;;;3.70;;
68475;SDS011;55464;48.266;14.188;2023-06-10T11:44:09;4.95;;;3.95;;
68475;SDS011;55464;48.266;14.188;2023-06-10T11:46:35;5.82;;;3.75;;
68475;SDS011;55464;48.266;14.188;2023-06-10T11:49:01;4.22;;;3.58;;
68475;SDS011;55464;48.266;14.188;2023-06-10T11:51:32;4.03;;;3.40;;
68475;SDS011;55464;48.266;14.188;2023-06-10T11:54:02;3.95;;;2.72;;
68475;SDS011;55464;48.266;14.188;2023-06-10T11:56:28;2.30;;;2.10;;
68475;SDS011;55464;48.266;14.188;2023-06-10T11:58:56;2.80;;;2.60;;
68475;SDS011;55464;48.266;14.188;2023-06-10T12:01:29;2.75;;;2.55;;
68475;SDS011;55464;48.266;14.188;2023-06-10T12:03:59;4.20;;;2.97;;
68475;SDS011;55464;48.266;14.188;2023-06-10T12:06:38;4.90;;;3.25;;
68475;SDS011;55464;48.266;14.188;2023-06-10T12:09:06;5.95;;;4.55;;
68475;SDS011;55464;48.266;14.188;2023-06-10T12:11:32;6.78;;;5.53;;
68475;SDS011;55464;48.266;14.188;2023-06-10T12:13:58;7.63;;;6.00;;
68475;SDS011;55464;48.266;14.188;2023-06-10T12:16:24;8.20;;;6.22;;
68475;SDS011;55464;48.266;14.188;2023-06-10T12:18:49;5.35;;;4.47;;
68475;SDS011;55464;48.266;14.188;2023-06-10T12:21:24;5.18;;;4.68;;
68475;SDS011;55464;48.266;14.188;2023-06-10T12:24:03;5.70;;;4.68;;
68475;SDS011;55464;48.266;14.188;2023-06-10T12:31:58;7.90;;;7.05;;
68475;SDS011;55464;48.266;14.188;2023-06-10T12:34:29;6.45;;;5.28;;
68475;SDS011;55464;48.266;14.188;2023-06-10T12:36:56;4.72;;;4.22;;
68475;SDS011;55464;48.266;14.188;2023-06-10T12:39:21;5.47;;;4.70;;
68475;SDS011;55464;48.266;14.188;2023-06-10T12:41:47;5.70;;;4.95;;
68475;SDS011;55464;48.266;14.188;2023-06-10T12:44:13;6.78;;;5.40;;
68475;SDS011;55464;48.266;14.188;2023-06-10T12:46:39;6.45;;;5.13;;
68475;SDS011;55464;48.266;14.188;2023-06-10T12:49:04;6.63;;;5.82;;
68475;SDS011;55464;48.266;14.188;2023-06-10T12:51:29;7.57;;;5.85;;
68475;SDS011;55464;48.266;14.188;2023-06-10T12:53:55;6.40;;;5.70;;
68475;SDS011;55464;48.266;14.188;2023-06-10T12:56:20;6.97;;;5.40;;
68475;SDS011;55464;48.266;14.188;2023-06-10T12:58:47;6.75;;;6.15;;
68475;SDS011;55464;48.266;14.188;2023-06-10T13:01:13;6.03;;;5.47;;
68475;SDS011;55464;48.266;14.188;2023-06-10T13:03:38;9.82;;;5.97;;
68475;SDS011;55464;48.266;14.188;2023-06-10T13:06:05;6.22;;;5.68;;
68475;SDS011;55464;48.266;14.188;2023-06-10T13:08:31;6.63;;;5.75;;
68475;SDS011;55464;48.266;14.188;2023-06-10T13:10:57;6.55;;;5.45;;
68475;SDS011;55464;48.266;14.188;2023-06-10T13:13:23;7.35;;;5.85;;
68475;SDS011;55464;48.266;14.188;2023-06-10T13:15:49;6.80;;;6.10;;
68475;SDS011;55464;48.266;14.188;2023-06-10T13:18:15;7.25;;;6.32;;
68475;SDS011;55464;48.266;14.188;2023-06-10T13:20:42;13.77;;;7.00;;
68475;SDS011;55464;48.266;14.188;2023-06-10T13:23:08;7.07;;;6.38;;
68475;SDS011;55464;48.266;14.188;2023-06-10T13:25:33;10.20;;;7.28;;
68475;SDS011;55464;48.266;14.188;2023-06-10T13:27:59;11.80;;;8.20;;
68475;SDS011;55464;48.266;14.188;2023-06-10T13:30:24;10.32;;;7.78;;
68475;SDS011;55464;48.266;14.188;2023-06-10T13:32:51;11.88;;;8.70;;
68475;SDS011;55464;48.266;14.188;2023-06-10T13:35:16;10.68;;;8.35;;
68475;SDS011;55464;48.266;14.188;2023-06-10T13:37:42;10.40;;;8.25;;
68475;SDS011;55464;48.266;14.188;2023-06-10T13:40:07;9.63;;;8.55;;
68475;SDS011;55464;48.266;14.188;2023-06-10T13:42:34;11.65;;;9.02;;
68475;SDS011;55464;48.266;14.188;2023-06-10T13:45:00;9.50;;;8.32;;
68475;SDS011;55464;48.266;14.188;2023-06-10T13:47:26;13.30;;;8.60;;
68475;SDS011;55464;48.266;14.188;2023-06-10T13:49:51;10.55;;;8.43;;
68475;SDS011;55464;48.266;14.188;2023-06-10T13:52:17;9.10;;;8.20;;
68475;SDS011;55464;48.266;14.188;2023-06-10T13:54:43;11.18;;;8.50;;
68475;SDS011;55464;48.266;14.188;2023-06-10T13:57:09;11.20;;;8.57;;
68475;SDS011;55464;48.266;14.188;2023-06-10T13:59:35;9.43;;;8.43;;
68475;SDS011;55464;48.266;14.188;2023-06-10T14:02:01;9.68;;;8.15;;
68475;SDS011;55464;48.266;14.188;2023-06-10T14:04:26;10.13;;;8.38;;
68475;SDS011;55464;48.266;14.188;2023-06-10T14:06:52;9.27;;;8.27;;
68475;SDS011;55464;48.266;14.188;2023-06-10T14:09:17;10.38;;;8.30;;
68475;SDS011;55464;48.266;14.188;2023-06-10T14:11:44;10.32;;;7.75;;
68475;SDS011;55464;48.266;14.188;2023-06-10T14:14:09;11.57;;;7.88;;
68475;SDS011;55464;48.266;14.188;2023-06-10T14:16:35;8.18;;;7.40;;
68475;SDS011;55464;48.266;14.188;2023-06-10T14:19:00;11.65;;;7.68;;
68475;SDS011;55464;48.266;14.188;2023-06-10T14:21:26;7.78;;;6.97;;
68475;SDS011;55464;48.266;14.188;2023-06-10T14:23:51;10.02;;;7.85;;
68475;SDS011;55464;48.266;14.188;2023-06-10T14:26:18;8.20;;;7.15;;
68475;SDS011;55464;48.266;14.188;2023-06-10T14:28:44;8.65;;;7.68;;
68475;SDS011;55464;48.266;14.188;2023-06-10T14:31:09;9.13;;;8.10;;
68475;SDS011;55464;48.266;14.188;2023-06-10T14:33:35;9.77;;;8.00;;
68475;SDS011;55464;48.266;14.188;2023-06-10T14:36:01;9.07;;;7.75;;